createdAt,value
2019-03-30T00:01:20.301Z,22.07
2019-03-30T00:03:58.560Z,21.30
2019-03-30T00:06:37.434Z,23.77
2019-03-30T00:09:15.811Z,24.87
2019-03-30T00:11:53.739Z,24.15
2019-03-30T00:14:31.954Z,25.80
2019-03-30T00:17:10.800Z,26.75
2019-03-30T00:19:48.930Z,25.48
2019-03-30T00:22:27.276Z,27.58
2019-03-30T00:25:05.486Z,28.23
2019-03-30T00:27:43.823Z,28.55
2019-03-30T00:30:22.072Z,27.87
2019-03-30T00:32:59.984Z,29.87
2019-03-30T00:35:38.339Z,29.60
2019-03-30T00:38:16.101Z,32.08
2019-03-30T00:40:54.014Z,34.48
2019-03-30T00:43:31.989Z,31.60
2019-03-30T00:46:10.078Z,34.23
2019-03-30T00:48:48.049Z,38.73
2019-03-30T00:51:37.029Z,34.83
2019-03-30T00:54:15.074Z,32.93
2019-03-30T00:56:53.009Z,38.60
2019-03-30T00:59:30.669Z,36.05
2019-03-30T01:02:08.920Z,37.40
2019-03-30T01:05:00.036Z,39.20
2019-03-30T01:07:38.361Z,38.30
2019-03-30T01:10:17.286Z,42.55
2019-03-30T01:12:55.143Z,41.00
2019-03-30T01:15:33.259Z,36.98
2019-03-30T01:18:10.966Z,35.33
2019-03-30T01:20:48.769Z,34.90
2019-03-30T01:23:37.638Z,34.55
2019-03-30T01:26:15.458Z,36.60
2019-03-30T01:28:53.550Z,39.58
2019-03-30T01:31:31.762Z,36.55
2019-03-30T01:34:09.713Z,37.73
2019-03-30T01:36:48.627Z,35.15
2019-03-30T01:39:26.504Z,37.20
2019-03-30T01:42:04.734Z,36.08
2019-03-30T01:44:43.006Z,34.55
2019-03-30T01:47:21.143Z,40.92
2019-03-30T01:49:58.850Z,38.45
2019-03-30T01:52:36.802Z,40.75
2019-03-30T01:55:14.581Z,39.25
2019-03-30T01:57:52.338Z,36.55
2019-03-30T02:00:30.596Z,36.13
2019-03-30T02:03:08.847Z,37.13
2019-03-30T02:05:46.580Z,34.92
2019-03-30T02:08:24.454Z,41.18
2019-03-30T02:11:02.322Z,35.88
2019-03-30T02:13:40.088Z,39.30
2019-03-30T02:16:17.931Z,36.93
2019-03-30T02:18:55.807Z,37.45
2019-03-30T02:21:33.636Z,39.40
2019-03-30T02:24:13.305Z,39.03
2019-03-30T02:26:51.268Z,36.50
2019-03-30T02:29:28.951Z,44.75
2019-03-30T02:32:06.941Z,45.30
2019-03-30T02:34:45.130Z,40.00
2019-03-30T02:37:22.993Z,38.28
2019-03-30T02:40:00.740Z,43.15
2019-03-30T02:42:38.605Z,42.98
2019-03-30T02:45:16.492Z,48.40
2019-03-30T02:47:54.416Z,35.95
2019-03-30T02:50:48.250Z,44.98
2019-03-30T02:53:12.646Z,46.63
2019-03-30T02:55:50.513Z,43.17
2019-03-30T02:58:28.445Z,41.02
2019-03-30T03:01:06.311Z,36.88
2019-03-30T03:03:44.633Z,37.85
2019-03-30T03:06:22.376Z,39.18
2019-03-30T03:09:00.310Z,37.20
2019-03-30T03:11:38.688Z,39.27
2019-03-30T03:14:16.409Z,41.02
2019-03-30T03:16:54.836Z,40.98
2019-03-30T03:19:33.117Z,37.95
2019-03-30T03:22:10.969Z,37.13
2019-03-30T03:24:49.339Z,42.95
2019-03-30T03:27:27.562Z,43.42
2019-03-30T03:30:07.158Z,41.28
2019-03-30T03:32:45.106Z,37.85
2019-03-30T03:35:24.622Z,42.35
2019-03-30T03:38:02.993Z,42.60
2019-03-30T03:40:40.883Z,43.52
2019-03-30T03:43:18.638Z,43.60
2019-03-30T03:45:56.518Z,45.05
2019-03-30T03:48:34.692Z,43.73
2019-03-30T03:51:25.533Z,48.55
2019-03-30T03:53:54.104Z,48.13
2019-03-30T03:56:33.445Z,46.33
2019-03-30T03:59:13.233Z,52.27
2019-03-30T04:01:52.816Z,49.08
2019-03-30T04:04:33.848Z,47.40
2019-03-30T04:07:13.472Z,52.35
2019-03-30T04:09:54.386Z,46.40
2019-03-30T04:15:11.796Z,45.98
2019-03-30T04:17:49.637Z,49.15
2019-03-30T04:20:27.439Z,47.53
2019-03-30T04:23:05.746Z,43.58
2019-03-30T04:25:43.710Z,51.70
2019-03-30T04:28:22.434Z,45.88
2019-03-30T04:31:00.357Z,55.80
2019-03-30T04:33:38.114Z,53.52
2019-03-30T04:36:15.895Z,50.88
2019-03-30T04:38:53.790Z,55.65
2019-03-30T04:41:32.915Z,49.00
2019-03-30T04:44:10.715Z,48.30
2019-03-30T04:46:49.053Z,55.10
2019-03-30T04:49:26.688Z,47.90
2019-03-30T04:52:04.487Z,48.87
2019-03-30T04:54:43.408Z,45.23
2019-03-30T04:57:22.229Z,49.38
2019-03-30T05:00:00.752Z,45.48
2019-03-30T05:02:39.030Z,45.98
2019-03-30T05:05:17.182Z,45.95
2019-03-30T05:08:06.650Z,42.25
2019-03-30T05:10:44.752Z,43.83
2019-03-30T05:13:22.824Z,40.95
2019-03-30T05:16:00.572Z,43.98
2019-03-30T05:18:38.520Z,38.45
2019-03-30T05:21:16.862Z,40.40
2019-03-30T05:23:54.758Z,36.55
2019-03-30T05:26:32.505Z,37.23
2019-03-30T05:29:10.280Z,34.75
2019-03-30T05:31:48.476Z,35.55
2019-03-30T05:34:26.752Z,33.75
2019-03-30T05:37:05.424Z,36.25
2019-03-30T05:39:43.629Z,37.20
2019-03-30T05:42:21.598Z,41.08
2019-03-30T05:44:59.523Z,35.65
2019-03-30T05:47:37.546Z,34.13
2019-03-30T05:50:15.850Z,38.20
2019-03-30T05:52:54.107Z,39.08
2019-03-30T05:55:32.110Z,30.55
2019-03-30T05:58:11.478Z,36.85
2019-03-30T06:00:49.923Z,32.98
2019-03-30T06:03:28.367Z,33.50
2019-03-30T06:06:06.807Z,40.20
2019-03-30T06:08:44.747Z,33.73
2019-03-30T06:11:22.726Z,32.25
2019-03-30T06:14:00.972Z,33.88
2019-03-30T06:16:39.041Z,35.73
2019-03-30T06:19:16.828Z,36.90
2019-03-30T06:21:55.103Z,36.93
2019-03-30T06:24:33.084Z,32.67
2019-03-30T06:27:10.971Z,29.48
2019-03-30T06:30:21.025Z,29.27
2019-03-30T06:32:58.667Z,29.50
2019-03-30T06:35:36.620Z,29.82
2019-03-30T06:38:14.333Z,29.07
2019-03-30T06:40:52.579Z,30.12
2019-03-30T06:43:31.456Z,27.00
2019-03-30T06:46:09.287Z,32.15
2019-03-30T06:48:47.315Z,27.80
2019-03-30T06:51:25.632Z,29.72
2019-03-30T06:54:03.712Z,33.25
2019-03-30T06:56:42.140Z,29.90
2019-03-30T06:59:19.807Z,30.60
2019-03-30T07:01:58.140Z,31.85
2019-03-30T07:04:36.677Z,31.73
2019-03-30T07:07:15.718Z,34.63
2019-03-30T07:09:54.293Z,33.88
2019-03-30T07:12:34.429Z,39.48
2019-03-30T07:15:13.145Z,34.23
2019-03-30T07:17:51.878Z,33.23
2019-03-30T07:20:32.917Z,34.88
2019-03-30T07:23:12.475Z,32.80
2019-03-30T07:26:02.352Z,31.10
2019-03-30T07:28:40.285Z,36.90
2019-03-30T07:31:18.484Z,37.75
2019-03-30T07:33:56.863Z,38.25
2019-03-30T07:36:34.740Z,39.03
2019-03-30T07:39:13.082Z,49.23
2019-03-30T07:41:51.504Z,46.48
2019-03-30T08:01:57.073Z,47.77
2019-03-30T08:04:35.090Z,46.80
2019-03-30T08:07:12.963Z,46.68
2019-03-30T08:09:50.787Z,48.92
2019-03-30T08:12:28.513Z,43.48
2019-03-30T08:15:07.778Z,45.50
2019-03-30T08:17:46.132Z,43.83
2019-03-30T08:20:23.753Z,43.92
2019-03-30T08:23:01.603Z,42.43
2019-03-30T08:25:39.528Z,41.20
2019-03-30T08:28:17.395Z,43.00
2019-03-30T08:30:55.392Z,44.33
2019-03-30T08:33:33.481Z,40.83
2019-03-30T08:36:11.864Z,47.03
2019-03-30T08:38:49.880Z,44.18
2019-03-30T08:41:27.720Z,42.60
2019-03-30T08:44:05.489Z,45.78
2019-03-30T08:46:43.433Z,39.75
2019-03-30T08:49:21.681Z,39.25
2019-03-30T08:51:59.680Z,49.15
2019-03-30T08:54:37.533Z,41.35
2019-03-30T08:57:15.628Z,43.25
2019-03-30T08:59:53.449Z,40.28
2019-03-30T09:02:31.239Z,42.93
2019-03-30T09:05:09.905Z,40.90
2019-03-30T09:07:47.966Z,38.55
2019-03-30T09:10:26.481Z,45.58
2019-03-30T09:13:04.403Z,41.00
2019-03-30T09:15:42.407Z,37.15
2019-03-30T09:18:20.262Z,38.48
2019-03-30T09:20:59.429Z,37.50
2019-03-30T09:23:37.945Z,38.50
2019-03-30T09:26:16.752Z,39.33
2019-03-30T09:28:54.810Z,37.05
2019-03-30T09:31:32.694Z,40.70
2019-03-30T09:34:10.595Z,39.23
2019-03-30T09:36:48.703Z,42.48
2019-03-30T09:39:26.906Z,35.50
2019-03-30T09:42:04.990Z,39.05
2019-03-30T09:44:43.012Z,36.45
2019-03-30T09:47:20.926Z,37.28
2019-03-30T09:50:02.139Z,45.75
2019-03-30T09:52:38.467Z,38.23
2019-03-30T09:55:16.458Z,36.93
2019-03-30T09:57:54.490Z,37.50
2019-03-30T10:00:34.067Z,38.20
2019-03-30T10:03:12.104Z,34.20
2019-03-30T10:05:50.561Z,33.35
2019-03-30T10:08:29.293Z,34.45
2019-03-30T10:11:07.216Z,31.73
2019-03-30T10:13:45.788Z,34.30
2019-03-30T10:16:24.930Z,33.35
2019-03-30T10:19:02.757Z,31.20
2019-03-30T10:21:40.722Z,37.67
2019-03-30T10:24:18.832Z,31.10
2019-03-30T10:26:56.834Z,31.55
2019-03-30T10:29:34.509Z,31.70
2019-03-30T10:32:12.533Z,32.75
2019-03-30T10:34:50.340Z,32.38
2019-03-30T10:37:28.353Z,31.73
2019-03-30T10:40:07.157Z,29.20
2019-03-30T10:42:46.142Z,30.15
2019-03-30T10:45:24.438Z,32.63
2019-03-30T10:48:02.636Z,33.23
2019-03-30T10:50:40.637Z,31.97
2019-03-30T10:53:19.476Z,32.10
2019-03-30T10:55:57.321Z,33.90
2019-03-30T10:58:35.288Z,31.70
2019-03-30T11:01:13.449Z,32.65
2019-03-30T11:03:51.705Z,30.27
2019-03-30T11:06:30.170Z,29.48
2019-03-30T11:09:08.564Z,33.48
2019-03-30T11:11:46.478Z,36.45
2019-03-30T11:14:24.385Z,32.28
2019-03-30T11:17:02.516Z,32.03
2019-03-30T11:19:40.733Z,33.08
2019-03-30T11:22:18.619Z,31.40
2019-03-30T11:25:07.209Z,27.73
2019-03-30T11:27:36.574Z,29.20
2019-03-30T11:30:14.529Z,31.25
2019-03-30T11:32:52.557Z,30.37
2019-03-30T11:35:30.383Z,29.20
2019-03-30T11:38:08.291Z,31.85
2019-03-30T11:40:46.244Z,30.92
2019-03-30T11:43:25.102Z,30.50
2019-03-30T11:46:03.359Z,28.90
2019-03-30T11:48:41.329Z,35.23
2019-03-30T11:51:19.227Z,34.43
2019-03-30T11:53:57.235Z,34.08
2019-03-30T12:00:11.364Z,35.73
2019-03-30T12:02:50.102Z,34.55
2019-03-30T12:05:27.893Z,38.88
2019-03-30T12:08:05.801Z,33.75
2019-03-30T12:10:43.913Z,35.17
2019-03-30T12:13:22.422Z,33.45
2019-03-30T12:16:00.419Z,29.23
2019-03-30T12:18:38.543Z,31.35
2019-03-30T12:21:16.946Z,29.50
2019-03-30T12:23:54.892Z,32.03
2019-03-30T12:26:32.648Z,29.00
2019-03-30T12:29:11.130Z,32.65
2019-03-30T12:31:49.959Z,34.03
2019-03-30T12:34:28.160Z,33.67
2019-03-30T12:37:06.051Z,29.85
2019-03-30T12:39:43.808Z,28.47
2019-03-30T12:42:22.588Z,28.05
2019-03-30T12:45:00.802Z,29.30
2019-03-30T12:47:38.704Z,33.25
2019-03-30T12:50:16.694Z,30.23
2019-03-30T12:52:54.491Z,28.05
2019-03-30T12:55:32.704Z,24.95
2019-03-30T12:58:10.601Z,27.90
2019-03-30T13:00:48.476Z,30.52
2019-03-30T13:03:26.838Z,29.60
2019-03-30T13:06:05.037Z,26.82
2019-03-30T13:08:43.019Z,28.60
2019-03-30T13:11:21.680Z,27.22
2019-03-30T13:13:59.653Z,24.05
2019-03-30T13:16:37.557Z,27.10
2019-03-30T13:19:15.315Z,25.90
2019-03-30T13:21:53.453Z,23.67
2019-03-30T13:24:31.485Z,24.52
2019-03-30T13:27:12.741Z,22.75
2019-03-30T13:29:48.962Z,23.62
2019-03-30T13:32:26.801Z,24.07
2019-03-30T13:35:04.866Z,21.93
2019-03-30T13:37:43.052Z,22.35
2019-03-30T13:40:20.867Z,25.82
2019-03-30T13:42:58.656Z,20.05
2019-03-30T13:45:36.652Z,21.65
2019-03-30T13:48:14.629Z,20.20
2019-03-30T13:50:52.592Z,24.00
2019-03-30T13:53:41.885Z,19.10
2019-03-30T13:56:19.569Z,15.15
2019-03-30T13:58:57.464Z,20.43
2019-03-30T14:01:35.330Z,16.15
2019-03-30T14:04:13.328Z,22.42
2019-03-30T14:06:51.262Z,21.02
2019-03-30T14:09:29.145Z,16.27
2019-03-30T14:12:06.951Z,15.53
2019-03-30T14:14:44.943Z,20.02
2019-03-30T14:17:23.178Z,14.40
2019-03-30T14:20:01.027Z,18.73
2019-03-30T14:22:39.961Z,15.13
2019-03-30T14:25:17.773Z,14.93
2019-03-30T14:27:56.022Z,16.45
2019-03-30T14:30:33.859Z,16.85
2019-03-30T14:33:13.173Z,16.05
2019-03-30T14:35:51.055Z,15.60
2019-03-30T14:38:29.269Z,18.35
2019-03-30T14:41:07.177Z,12.93
2019-03-30T14:43:46.105Z,15.20
2019-03-30T14:46:24.361Z,18.65
2019-03-30T14:49:02.383Z,12.35
2019-03-30T14:51:40.231Z,20.88
2019-03-30T14:54:18.063Z,16.37
2019-03-30T14:56:56.167Z,13.78
2019-03-30T14:59:33.864Z,16.57
2019-03-30T15:02:11.550Z,16.55
2019-03-30T15:04:49.390Z,14.55
2019-03-30T15:07:27.709Z,11.57
2019-03-30T15:10:07.299Z,13.18
2019-03-30T15:12:45.083Z,11.53
2019-03-30T15:15:22.971Z,14.73
2019-03-30T15:18:00.869Z,12.78
2019-03-30T15:20:38.700Z,12.90
2019-03-30T15:23:16.531Z,17.27
2019-03-30T15:25:54.344Z,13.93
2019-03-30T15:28:32.192Z,13.25
2019-03-30T15:31:10.046Z,12.45
2019-03-30T15:33:48.000Z,11.35
2019-03-30T15:36:26.332Z,12.90
2019-03-30T15:39:05.664Z,15.25
2019-03-30T15:41:44.098Z,17.30
2019-03-30T15:44:21.900Z,179.20
2019-03-30T15:46:59.562Z,14.13
2019-03-30T15:49:37.622Z,12.47
2019-03-30T15:52:15.557Z,11.10
2019-03-30T15:54:53.602Z,12.45
2019-03-30T15:57:31.925Z,11.33
2019-03-30T16:00:11.918Z,11.78
2019-03-30T16:02:50.347Z,12.30
2019-03-30T16:05:28.513Z,11.12
2019-03-30T16:08:06.780Z,14.43
2019-03-30T16:10:52.267Z,11.75
2019-03-30T16:13:30.914Z,15.13
2019-03-30T16:16:09.677Z,10.65
2019-03-30T16:18:47.775Z,13.48
2019-03-30T16:21:26.603Z,12.70
2019-03-30T16:24:04.667Z,9.83
2019-03-30T16:26:43.266Z,11.33
2019-03-30T16:29:24.695Z,12.40
2019-03-30T16:32:02.752Z,13.18
2019-03-30T16:34:40.799Z,14.35
2019-03-30T16:37:18.809Z,11.48
2019-03-30T16:39:56.726Z,16.90
2019-03-30T16:42:34.473Z,14.03
2019-03-30T16:45:13.793Z,13.68
2019-03-30T16:47:52.847Z,12.98
2019-03-30T16:50:30.645Z,14.23
2019-03-30T16:53:09.013Z,14.25
2019-03-30T16:55:47.395Z,13.28
2019-03-30T16:58:25.909Z,14.47
2019-03-30T17:01:06.238Z,13.65
2019-03-30T17:03:45.227Z,11.95
2019-03-30T17:06:24.557Z,16.62
2019-03-30T17:09:02.578Z,13.05
2019-03-30T17:11:41.608Z,14.60
2019-03-30T17:14:19.497Z,19.57
2019-03-30T17:16:57.774Z,11.70
2019-03-30T17:19:35.754Z,14.98
2019-03-30T17:22:13.644Z,13.83
2019-03-30T17:24:51.968Z,13.98
2019-03-30T17:27:30.305Z,16.70
2019-03-30T17:30:09.259Z,16.70
2019-03-30T17:32:47.117Z,14.75
2019-03-30T17:35:24.898Z,14.98
2019-03-30T17:38:03.650Z,19.07
2019-03-30T17:40:41.623Z,18.50
2019-03-30T17:43:20.301Z,19.30
2019-03-30T17:45:58.388Z,16.02
2019-03-30T17:48:37.261Z,17.60
2019-03-30T17:51:15.258Z,21.02
2019-03-30T17:53:53.334Z,19.00
2019-03-30T17:56:31.125Z,21.82
2019-03-30T17:59:09.045Z,16.77
2019-03-30T18:01:46.903Z,20.75
2019-03-30T18:04:24.818Z,18.10
2019-03-30T18:07:03.775Z,17.05
2019-03-30T18:09:41.631Z,19.50
2019-03-30T18:12:20.539Z,20.37
2019-03-30T18:14:58.563Z,19.27
2019-03-30T18:17:36.786Z,21.15
2019-03-30T18:20:14.871Z,22.32
2019-03-30T18:22:52.645Z,20.80
2019-03-30T18:25:31.013Z,20.00
2019-03-30T18:28:09.307Z,23.05
2019-03-30T18:30:47.515Z,24.60
2019-03-30T18:33:25.411Z,21.62
2019-03-30T18:36:04.159Z,27.32
2019-03-30T18:38:42.045Z,29.45
2019-03-30T18:41:20.189Z,28.15
2019-03-30T18:44:02.057Z,33.28
2019-03-30T18:46:38.823Z,27.20
2019-03-30T18:49:17.864Z,29.18
2019-03-30T18:51:56.536Z,32.35
2019-03-30T18:54:34.926Z,30.70
2019-03-30T18:57:15.026Z,28.30
2019-03-30T18:59:52.988Z,33.58
2019-03-30T19:02:42.040Z,28.07
2019-03-30T19:05:19.854Z,32.40
2019-03-30T19:07:57.839Z,31.95
2019-03-30T19:10:35.731Z,28.90
2019-03-30T19:13:13.776Z,33.18
2019-03-30T19:15:51.854Z,35.73
2019-03-30T19:18:29.877Z,32.83
2019-03-30T19:21:08.140Z,35.13
2019-03-30T19:23:45.935Z,43.48
2019-03-30T19:26:23.710Z,44.42
2019-03-30T19:29:02.026Z,55.03
2019-03-30T19:31:39.971Z,57.93
2019-03-30T19:34:18.074Z,63.65
2019-03-30T19:36:55.813Z,88.80
2019-03-30T19:39:33.800Z,71.72
2019-03-30T19:42:11.689Z,136.80
2019-03-30T19:44:50.045Z,104.10
2019-03-30T19:47:29.367Z,78.70
2019-03-30T19:50:08.309Z,82.08
2019-03-30T19:52:46.494Z,75.92
2019-03-30T19:55:25.042Z,79.62
2019-03-30T19:58:03.541Z,87.75
2019-03-30T20:00:41.514Z,82.72
2019-03-30T20:03:19.537Z,89.62
2019-03-30T20:05:57.544Z,85.42
2019-03-30T20:08:35.728Z,91.80
2019-03-30T20:11:14.122Z,84.22
2019-03-30T20:13:52.590Z,84.95
2019-03-30T20:16:30.373Z,79.53
2019-03-30T20:19:12.500Z,72.22
2019-03-30T20:21:48.177Z,77.85
2019-03-30T20:24:26.513Z,87.62
2019-03-30T20:27:05.175Z,84.65
2019-03-30T20:29:43.289Z,74.92
2019-03-30T20:32:21.313Z,86.15
2019-03-30T20:34:59.160Z,81.40
2019-03-30T20:37:37.199Z,75.75
2019-03-30T20:40:16.602Z,74.00
2019-03-30T20:42:54.525Z,80.65
2019-03-30T20:45:32.976Z,77.70
2019-03-30T20:48:11.486Z,76.50
2019-03-30T20:50:49.447Z,74.85
2019-03-30T20:53:27.197Z,73.52
2019-03-30T20:56:06.543Z,76.20
2019-03-30T20:58:44.972Z,75.65
2019-03-30T21:01:23.423Z,84.00
2019-03-30T21:04:01.502Z,83.35
2019-03-30T21:06:41.418Z,79.10
2019-03-30T21:09:19.845Z,82.25
2019-03-30T21:11:57.960Z,103.50
2019-03-30T21:14:36.026Z,119.70
2019-03-30T21:17:14.260Z,118.40
2019-03-30T21:19:52.623Z,112.62
2019-03-30T21:22:30.610Z,109.55
2019-03-30T21:25:08.722Z,90.72
2019-03-30T21:27:46.480Z,85.57
2019-03-30T21:30:25.242Z,89.45
2019-03-30T21:33:03.188Z,85.57
2019-03-30T21:35:42.692Z,85.25
2019-03-30T21:38:20.978Z,84.70
2019-03-30T21:40:58.912Z,78.05
2019-03-30T21:43:37.306Z,78.83
2019-03-30T21:46:15.746Z,80.83
2019-03-30T21:48:53.748Z,80.55
2019-03-30T21:51:32.454Z,79.53
2019-03-30T21:54:10.450Z,74.80
2019-03-30T21:56:48.353Z,74.45
2019-03-30T21:59:26.214Z,78.47
2019-03-30T22:02:04.490Z,69.53
2019-03-30T22:04:43.131Z,76.60
2019-03-30T22:07:21.131Z,74.05
2019-03-30T22:09:59.758Z,69.22
2019-03-30T22:12:41.795Z,74.65
2019-03-30T22:15:23.723Z,72.97
2019-03-30T22:18:02.043Z,72.08
2019-03-30T22:20:39.992Z,74.77
2019-03-30T22:23:17.865Z,64.85
2019-03-30T22:25:56.345Z,64.85
2019-03-30T22:28:34.405Z,70.60
2019-03-30T22:31:17.871Z,69.58
2019-03-30T22:33:56.145Z,66.47
2019-03-30T22:36:34.057Z,58.98
2019-03-30T22:39:12.051Z,61.05
2019-03-30T22:41:49.812Z,65.92
2019-03-30T22:44:27.976Z,59.88
2019-03-30T22:47:05.912Z,59.95
2019-03-30T22:49:43.805Z,63.90
2019-03-30T22:52:21.778Z,56.85
2019-03-30T22:55:00.140Z,59.70
2019-03-30T22:57:38.238Z,59.15
2019-03-30T23:00:38.926Z,58.45
2019-03-30T23:03:16.778Z,56.18
2019-03-30T23:05:54.747Z,59.48
2019-03-30T23:08:32.693Z,55.05
2019-03-30T23:11:11.072Z,64.20
2019-03-30T23:13:48.918Z,66.75
2019-03-30T23:16:26.975Z,57.20
2019-03-30T23:19:05.304Z,63.75
2019-03-30T23:21:43.225Z,56.15
2019-03-30T23:24:21.348Z,55.92
2019-03-30T23:26:59.802Z,63.20
2019-03-30T23:29:37.644Z,49.93
2019-03-30T23:32:15.960Z,48.55
2019-03-30T23:34:54.429Z,49.05
2019-03-30T23:37:33.674Z,45.35
2019-03-30T23:40:11.727Z,55.17
2019-03-30T23:42:49.801Z,51.05
2019-03-30T23:45:27.700Z,52.40
2019-03-30T23:48:05.644Z,51.85
2019-03-30T23:50:43.672Z,47.45
2019-03-30T23:53:21.446Z,40.95
2019-03-30T23:55:59.401Z,44.03
2019-03-30T23:58:37.436Z,43.13
